createdAt,value
2023-03-07T00:02:06.293Z,13.17
2023-03-07T00:04:33.625Z,13.03
2023-03-07T00:07:01.251Z,12.63
2023-03-07T00:09:28.607Z,13.53
2023-03-07T00:11:55.905Z,13.33
2023-03-07T00:14:23.210Z,13.23
2023-03-07T00:16:51.884Z,13.30
2023-03-07T00:19:19.584Z,13.20
2023-03-07T00:21:46.896Z,13.83
2023-03-07T00:24:14.204Z,13.40
2023-03-07T00:26:41.525Z,13.80
2023-03-07T00:29:09.772Z,13.67
2023-03-07T00:31:37.976Z,13.83
2023-03-07T00:34:05.709Z,13.90
2023-03-07T00:36:33.009Z,13.80
2023-03-07T00:39:00.345Z,13.93
2023-03-07T00:41:29.321Z,13.57
2023-03-07T00:43:56.688Z,13.23
2023-03-07T00:46:26.167Z,14.67
2023-03-07T00:48:53.654Z,13.53
2023-03-07T00:51:22.657Z,13.70
2023-03-07T00:53:50.658Z,14.17
2023-03-07T00:56:20.365Z,14.60
2023-03-07T00:58:48.547Z,15.07
2023-03-07T01:01:19.507Z,13.50
2023-03-07T01:03:49.904Z,14.47
2023-03-07T01:06:19.927Z,14.93
2023-03-07T01:08:47.458Z,15.63
2023-03-07T01:11:15.437Z,15.27
2023-03-07T01:13:42.878Z,16.07
2023-03-07T01:16:17.929Z,16.33
2023-03-07T01:18:48.867Z,16.17
2023-03-07T01:21:18.260Z,17.03
2023-03-07T01:23:46.464Z,16.60
2023-03-07T01:26:20.014Z,16.37
2023-03-07T01:28:48.190Z,17.97
2023-03-07T01:31:15.600Z,17.47
2023-03-07T01:33:43.175Z,17.73
2023-03-07T01:36:31.354Z,18.80
2023-03-07T01:39:06.921Z,17.23
2023-03-07T01:41:36.590Z,17.07
2023-03-07T01:44:08.549Z,19.77
2023-03-07T01:46:54.011Z,22.10
2023-03-07T01:49:37.943Z,20.33
2023-03-07T01:52:08.193Z,25.60
2023-03-07T01:54:40.021Z,22.40
2023-03-07T01:57:08.083Z,24.40
2023-03-07T01:59:41.455Z,22.23
2023-03-07T02:02:13.781Z,21.93
2023-03-07T02:04:49.930Z,25.17
2023-03-07T02:07:21.910Z,28.70
2023-03-07T02:09:50.902Z,26.73
2023-03-07T02:12:18.363Z,21.17
2023-03-07T02:14:48.484Z,20.73
2023-03-07T02:17:16.739Z,20.63
2023-03-07T02:19:51.762Z,21.30
2023-03-07T02:22:20.106Z,20.50
2023-03-07T02:25:28.409Z,21.60
2023-03-07T02:27:57.440Z,22.77
2023-03-07T02:30:25.793Z,30.43
2023-03-07T02:32:53.158Z,23.57
2023-03-07T02:35:25.692Z,24.37
2023-03-07T02:37:56.295Z,23.27
2023-03-07T02:40:27.257Z,25.13
2023-03-07T02:42:57.674Z,24.70
2023-03-07T02:45:25.043Z,25.13
2023-03-07T02:47:52.586Z,25.40
2023-03-07T02:50:20.021Z,25.37
2023-03-07T02:52:47.469Z,26.80
2023-03-07T02:55:14.870Z,31.10
2023-03-07T02:57:42.252Z,33.10
2023-03-07T03:00:12.777Z,35.03
2023-03-07T03:02:40.028Z,32.73
2023-03-07T03:05:11.958Z,30.07
2023-03-07T03:07:39.639Z,29.93
2023-03-07T03:10:07.696Z,28.73
2023-03-07T03:12:35.051Z,30.90
2023-03-07T03:15:02.457Z,31.57
2023-03-07T03:17:30.304Z,33.93
2023-03-07T03:19:57.574Z,34.70
2023-03-07T03:22:25.364Z,42.30
2023-03-07T03:24:52.654Z,39.00
2023-03-07T03:27:20.106Z,40.50
2023-03-07T03:29:47.405Z,37.77
2023-03-07T03:32:14.795Z,38.27
2023-03-07T03:34:42.200Z,38.13
2023-03-07T03:37:09.494Z,37.07
2023-03-07T03:39:37.957Z,41.90
2023-03-07T03:42:06.598Z,33.20
2023-03-07T03:44:33.923Z,27.13
2023-03-07T03:47:01.464Z,32.03
2023-03-07T03:49:28.915Z,31.17
2023-03-07T03:51:56.422Z,27.67
2023-03-07T03:54:24.077Z,27.27
2023-03-07T03:56:51.660Z,31.13
2023-03-07T03:59:19.084Z,30.77
2023-03-07T04:01:46.418Z,32.47
2023-03-07T04:04:13.762Z,30.27
2023-03-07T04:06:42.840Z,26.20
2023-03-07T04:09:11.114Z,24.70
2023-03-07T04:11:38.431Z,22.00
2023-03-07T04:14:06.246Z,21.13
2023-03-07T04:16:33.650Z,21.27
2023-03-07T04:19:00.991Z,23.20
2023-03-07T04:21:28.442Z,22.77
2023-03-07T04:23:57.452Z,27.30
2023-03-07T04:26:25.406Z,24.70
2023-03-07T04:28:52.862Z,23.33
2023-03-07T04:31:23.274Z,26.27
2023-03-07T04:33:52.106Z,26.97
2023-03-07T04:36:19.408Z,28.17
2023-03-07T04:38:48.260Z,25.50
2023-03-07T04:41:18.457Z,22.53
2023-03-07T04:43:46.133Z,24.60
2023-03-07T04:46:15.327Z,26.57
2023-03-07T04:48:42.654Z,24.60
2023-03-07T04:51:10.117Z,27.60
2023-03-07T04:53:37.746Z,27.63
2023-03-07T04:56:08.454Z,33.87
2023-03-07T04:58:36.934Z,30.23
2023-03-07T05:01:06.083Z,31.57
2023-03-07T05:03:34.117Z,28.97
2023-03-07T05:06:15.086Z,27.80
2023-03-07T05:08:42.732Z,27.03
2023-03-07T05:11:09.962Z,26.23
2023-03-07T05:13:37.587Z,24.57
2023-03-07T05:16:05.402Z,23.60
2023-03-07T05:18:32.697Z,24.87
2023-03-07T05:21:00.249Z,28.07
2023-03-07T05:23:27.555Z,26.40
2023-03-07T05:25:54.882Z,29.33
2023-03-07T05:28:22.214Z,31.77
2023-03-07T05:30:50.124Z,29.17
2023-03-07T05:33:17.682Z,28.50
2023-03-07T05:35:45.106Z,33.03
2023-03-07T05:38:12.429Z,27.83
2023-03-07T05:40:40.437Z,39.93
2023-03-07T05:43:07.849Z,45.40
2023-03-07T05:45:35.202Z,38.87
2023-03-07T05:48:02.835Z,36.50
2023-03-07T05:50:30.992Z,37.27
2023-03-07T05:52:58.232Z,36.97
2023-03-07T05:55:25.474Z,60.93
2023-03-07T05:57:52.721Z,74.33
2023-03-07T06:00:20.546Z,66.00
2023-03-07T06:02:47.843Z,71.53
2023-03-07T06:05:15.614Z,175.30
2023-03-07T06:07:42.871Z,169.67
2023-03-07T06:10:12.270Z,72.93
2023-03-07T06:12:39.602Z,54.10
2023-03-07T06:15:09.083Z,70.60
2023-03-07T06:17:36.422Z,81.83
2023-03-07T06:20:04.425Z,61.97
2023-03-07T06:22:32.413Z,40.30
2023-03-07T06:24:59.748Z,46.70
2023-03-07T06:27:26.968Z,46.17
2023-03-07T06:29:54.305Z,45.83
2023-03-07T06:32:21.749Z,47.00
2023-03-07T06:34:49.001Z,44.07
2023-03-07T06:37:16.443Z,40.90
2023-03-07T06:39:44.081Z,38.50
2023-03-07T06:42:11.303Z,33.87
2023-03-07T06:44:39.031Z,34.27
2023-03-07T06:47:06.406Z,28.10
2023-03-07T06:49:33.801Z,30.70
2023-03-07T06:52:01.135Z,40.03
2023-03-07T06:54:28.412Z,33.00
2023-03-07T06:56:55.802Z,31.87
2023-03-07T06:59:23.197Z,31.73
2023-03-07T07:01:50.550Z,34.07
2023-03-07T07:04:17.898Z,35.13
2023-03-07T07:06:45.365Z,39.13
2023-03-07T07:09:14.484Z,34.87
2023-03-07T07:11:41.807Z,36.43
2023-03-07T07:14:09.050Z,37.83
2023-03-07T07:16:36.697Z,44.00
2023-03-07T07:19:04.291Z,49.10
2023-03-07T07:21:31.816Z,31.37
2023-03-07T07:23:59.438Z,29.63
2023-03-07T07:26:26.881Z,27.87
2023-03-07T07:28:54.210Z,26.20
2023-03-07T07:31:21.484Z,27.60
2023-03-07T07:33:48.959Z,25.60
2023-03-07T07:36:16.201Z,22.03
2023-03-07T07:38:43.409Z,23.30
2023-03-07T07:41:10.739Z,24.53
2023-03-07T07:43:38.267Z,23.70
2023-03-07T07:46:06.088Z,21.03
2023-03-07T07:48:34.031Z,18.73
2023-03-07T07:51:05.814Z,21.23
2023-03-07T07:53:33.475Z,18.60
2023-03-07T07:56:01.122Z,17.27
2023-03-07T07:58:28.370Z,16.37
2023-03-07T08:00:55.752Z,15.73
2023-03-07T08:03:23.190Z,18.77
2023-03-07T08:05:51.351Z,16.87
2023-03-07T08:08:19.790Z,13.93
2023-03-07T08:10:47.927Z,13.83
2023-03-07T08:13:18.081Z,14.13
2023-03-07T08:15:45.438Z,15.30
2023-03-07T08:18:12.743Z,13.83
2023-03-07T08:20:41.560Z,14.60
2023-03-07T08:23:09.110Z,13.67
2023-03-07T08:25:36.511Z,13.57
2023-03-07T08:28:05.770Z,13.03
2023-03-07T08:30:35.462Z,12.17
2023-03-07T08:33:02.809Z,17.83
2023-03-07T08:35:31.221Z,18.37
2023-03-07T08:38:00.055Z,13.83
2023-03-07T08:40:29.305Z,13.13
2023-03-07T08:42:56.619Z,12.90
2023-03-07T08:45:24.618Z,12.97
2023-03-07T08:47:56.102Z,12.50
2023-03-07T08:50:28.445Z,10.27
2023-03-07T08:52:56.335Z,10.20
2023-03-07T08:55:23.739Z,12.27
2023-03-07T08:57:51.340Z,11.90
2023-03-07T09:00:19.380Z,13.47
2023-03-07T09:02:47.213Z,13.20
2023-03-07T09:05:14.412Z,14.73
2023-03-07T09:07:42.751Z,17.10
2023-03-07T09:10:11.944Z,12.57
2023-03-07T09:12:39.218Z,15.87
2023-03-07T09:15:07.160Z,13.13
2023-03-07T09:17:34.386Z,15.63
2023-03-07T09:20:01.672Z,14.90
2023-03-07T09:22:28.953Z,13.83
2023-03-07T09:24:56.280Z,10.00
2023-03-07T09:27:23.519Z,10.43
2023-03-07T09:29:51.360Z,9.27
2023-03-07T09:32:18.635Z,10.53
2023-03-07T09:34:45.939Z,10.33
2023-03-07T09:37:13.542Z,11.33
2023-03-07T09:39:40.870Z,23.30
2023-03-07T09:42:35.541Z,9.87
2023-03-07T09:45:17.072Z,12.77
2023-03-07T09:48:33.594Z,11.50
2023-03-07T09:51:20.516Z,8.70
2023-03-07T09:54:02.831Z,9.80
2023-03-07T09:56:54.957Z,11.60
2023-03-07T09:59:27.444Z,20.43
2023-03-07T10:02:26.827Z,8.23
2023-03-07T10:05:04.642Z,11.63
2023-03-07T10:07:33.501Z,17.30
2023-03-07T10:10:14.564Z,12.27
2023-03-07T10:13:02.110Z,9.87
2023-03-07T10:16:05.052Z,7.53
2023-03-07T10:19:00.431Z,9.63
2023-03-07T10:21:34.237Z,8.57
2023-03-07T10:24:23.852Z,9.13
2023-03-07T10:27:02.011Z,8.27
2023-03-07T10:29:53.616Z,8.60
2023-03-07T10:32:23.774Z,6.87
2023-03-07T10:35:14.289Z,9.50
2023-03-07T10:37:50.519Z,10.60
2023-03-07T10:40:26.936Z,10.77
2023-03-07T10:42:55.905Z,9.27
2023-03-07T10:45:23.952Z,13.33
2023-03-07T10:47:51.317Z,10.30
2023-03-07T10:50:31.335Z,9.20
2023-03-07T10:53:01.502Z,8.73
2023-03-07T10:55:46.517Z,8.27
2023-03-07T10:58:21.427Z,8.00
2023-03-07T11:01:02.009Z,10.93
2023-03-07T11:03:55.336Z,9.30
2023-03-07T11:06:37.399Z,7.70
2023-03-07T11:09:27.843Z,13.37
2023-03-07T11:12:05.516Z,12.40
2023-03-07T11:15:00.818Z,9.47
2023-03-07T11:17:45.772Z,16.00
2023-03-07T11:20:21.666Z,7.17
2023-03-07T11:22:50.035Z,9.93
2023-03-07T11:25:23.735Z,8.33
2023-03-07T11:27:53.501Z,14.23
2023-03-07T11:30:42.394Z,20.87
2023-03-07T11:33:44.305Z,12.40
2023-03-07T11:36:29.524Z,8.87
2023-03-07T11:39:20.906Z,12.37
2023-03-07T11:41:55.556Z,10.53
2023-03-07T11:44:35.138Z,14.23
2023-03-07T11:47:22.166Z,10.57
2023-03-07T11:50:24.458Z,9.30
2023-03-07T11:53:23.759Z,14.17
2023-03-07T11:55:51.344Z,12.80
2023-03-07T11:58:33.736Z,11.70
2023-03-07T12:01:37.956Z,12.17
2023-03-07T12:04:26.518Z,9.67
2023-03-07T12:07:05.834Z,8.63
2023-03-07T12:09:40.205Z,11.17
2023-03-07T12:12:16.956Z,10.13
2023-03-07T12:14:56.300Z,17.47
2023-03-07T12:17:57.737Z,21.60
2023-03-07T12:20:35.596Z,15.57
2023-03-07T12:23:24.688Z,14.03
2023-03-07T12:25:59.250Z,11.77
2023-03-07T12:28:45.193Z,11.07
2023-03-07T12:31:16.839Z,18.07
2023-03-07T12:34:08.211Z,13.50
2023-03-07T12:36:43.393Z,10.07
2023-03-07T12:39:18.373Z,19.63
2023-03-07T12:41:49.052Z,10.40
2023-03-07T12:45:11.871Z,17.27
2023-03-07T12:47:54.113Z,8.23
2023-03-07T12:51:08.961Z,8.53
2023-03-07T12:53:39.616Z,14.97
2023-03-07T12:56:38.700Z,8.37
2023-03-07T12:59:14.865Z,10.73
2023-03-07T13:01:49.360Z,7.90
2023-03-07T13:04:36.251Z,8.57
2023-03-07T13:07:20.494Z,26.93
2023-03-07T13:09:50.973Z,8.53
2023-03-07T13:12:24.056Z,7.87
2023-03-07T13:15:03.040Z,15.07
2023-03-07T13:17:33.567Z,10.13
2023-03-07T13:20:16.051Z,7.87
2023-03-07T13:22:43.422Z,9.43
2023-03-07T13:25:29.499Z,9.43
2023-03-07T13:28:04.482Z,8.77
2023-03-07T13:30:33.895Z,10.17
2023-03-07T13:33:02.236Z,10.20
2023-03-07T13:35:29.696Z,8.03
2023-03-07T13:38:25.819Z,9.67
2023-03-07T13:40:54.451Z,24.70
2023-03-07T13:43:27.603Z,49.30
2023-03-07T13:46:06.107Z,31.80
2023-03-07T13:48:33.500Z,123.43
2023-03-07T13:51:00.733Z,46.43
2023-03-07T13:53:36.112Z,61.63
2023-03-07T13:56:15.781Z,14.13
2023-03-07T13:59:04.473Z,56.63
2023-03-07T14:01:45.492Z,10.87
2023-03-07T14:04:38.854Z,16.50
2023-03-07T14:07:22.842Z,21.07
2023-03-07T14:10:01.190Z,13.50
2023-03-07T14:12:46.168Z,11.13
2023-03-07T14:15:45.580Z,10.50
2023-03-07T14:18:27.410Z,14.40
2023-03-07T14:21:11.380Z,76.60
2023-03-07T14:24:11.108Z,151.50
2023-03-07T14:26:43.935Z,122.80
2023-03-07T14:29:23.145Z,143.33
2023-03-07T14:31:53.439Z,61.70
2023-03-07T14:34:36.344Z,162.93
2023-03-07T14:37:33.041Z,50.20
2023-03-07T14:40:00.351Z,10.43
2023-03-07T14:43:01.316Z,8.80
2023-03-07T14:45:40.724Z,16.90
2023-03-07T14:48:17.004Z,19.03
2023-03-07T14:50:45.258Z,19.53
2023-03-07T14:53:21.015Z,52.67
2023-03-07T14:55:51.764Z,17.20
2023-03-07T14:58:28.635Z,25.47
2023-03-07T15:01:17.432Z,16.03
2023-03-07T15:03:53.540Z,22.10
2023-03-07T15:06:25.406Z,15.80
2023-03-07T15:08:55.644Z,16.43
2023-03-07T15:11:44.544Z,10.60
2023-03-07T15:14:18.408Z,23.20
2023-03-07T15:16:55.105Z,9.53
2023-03-07T15:19:37.939Z,9.00
2023-03-07T15:22:13.774Z,9.97
2023-03-07T15:24:48.587Z,12.20
2023-03-07T15:27:25.726Z,9.13
2023-03-07T15:29:53.952Z,9.40
2023-03-07T15:32:34.080Z,8.87
2023-03-07T15:35:03.113Z,7.83
2023-03-07T15:37:35.452Z,8.60
2023-03-07T15:40:24.668Z,7.57
2023-03-07T15:43:02.748Z,6.87
2023-03-07T15:45:38.465Z,6.93
2023-03-07T15:48:31.854Z,6.40
2023-03-07T15:51:02.474Z,8.17
2023-03-07T15:53:33.861Z,10.37
2023-03-07T15:56:06.117Z,9.73
2023-03-07T15:58:36.578Z,10.27
2023-03-07T16:01:20.333Z,12.10
2023-03-07T16:03:59.180Z,15.73
2023-03-07T16:06:43.144Z,19.17
2023-03-07T16:09:13.862Z,18.20
2023-03-07T16:11:42.758Z,24.27
2023-03-07T16:14:26.469Z,41.23
2023-03-07T16:17:02.856Z,18.90
2023-03-07T16:19:30.716Z,21.03
2023-03-07T16:21:57.974Z,18.60
2023-03-07T16:24:25.322Z,23.17
2023-03-07T16:26:52.666Z,28.90
2023-03-07T16:29:24.038Z,21.53
2023-03-07T16:31:51.641Z,17.50
2023-03-07T16:34:22.600Z,19.27
2023-03-07T16:36:49.984Z,39.37
2023-03-07T16:39:18.665Z,19.87
2023-03-07T16:41:50.447Z,18.63
2023-03-07T16:44:25.148Z,25.73
2023-03-07T16:46:59.366Z,17.43
2023-03-07T16:49:26.674Z,16.97
2023-03-07T16:52:05.053Z,21.00
2023-03-07T16:54:33.941Z,15.53
2023-03-07T16:57:02.895Z,22.37
2023-03-07T16:59:35.767Z,20.17
2023-03-07T17:02:11.053Z,18.57
2023-03-07T17:04:38.331Z,44.17
2023-03-07T17:07:15.000Z,45.07
2023-03-07T17:09:42.339Z,27.70
2023-03-07T17:12:09.864Z,19.67
2023-03-07T17:14:37.377Z,33.77
2023-03-07T17:17:05.096Z,26.90
2023-03-07T17:19:33.792Z,12.27
2023-03-07T17:22:02.461Z,11.87
2023-03-07T17:24:30.101Z,16.17
2023-03-07T17:27:00.450Z,15.47
2023-03-07T17:29:42.231Z,10.53
2023-03-07T17:32:10.233Z,6.67
2023-03-07T17:34:38.986Z,10.67
2023-03-07T17:37:06.584Z,7.47
2023-03-07T17:39:34.724Z,9.57
2023-03-07T17:42:02.698Z,7.50
2023-03-07T17:44:30.195Z,18.27
2023-03-07T17:46:57.716Z,34.00
2023-03-07T17:49:28.973Z,23.47
2023-03-07T17:51:56.214Z,27.83
2023-03-07T17:54:23.584Z,27.43
2023-03-07T17:56:51.302Z,27.37
2023-03-07T17:59:18.588Z,22.43
2023-03-07T18:01:46.587Z,13.13
2023-03-07T18:04:13.942Z,16.03
2023-03-07T18:06:41.402Z,10.60
2023-03-07T18:09:09.537Z,24.00
2023-03-07T18:11:36.911Z,16.13
2023-03-07T18:14:04.259Z,12.70
2023-03-07T18:16:31.820Z,19.47
2023-03-07T18:19:01.199Z,29.00
2023-03-07T18:21:30.715Z,12.40
2023-03-07T18:23:58.348Z,6.77
2023-03-07T18:26:25.627Z,6.00
2023-03-07T18:28:54.144Z,13.43
2023-03-07T18:31:26.097Z,12.40
2023-03-07T18:33:54.334Z,14.77
2023-03-07T18:36:24.203Z,21.67
2023-03-07T18:38:51.863Z,33.07
2023-03-07T18:41:22.023Z,35.20
2023-03-07T18:43:49.573Z,27.77
2023-03-07T18:46:19.090Z,73.57
2023-03-07T18:48:47.291Z,94.43
2023-03-07T18:51:19.892Z,97.73
2023-03-07T18:53:47.210Z,47.73
2023-03-07T18:56:16.203Z,77.83
2023-03-07T18:58:44.595Z,33.57
2023-03-07T19:01:21.057Z,34.90
2023-03-07T19:03:50.822Z,14.17
2023-03-07T19:06:20.012Z,25.37
2023-03-07T19:08:47.602Z,31.37
2023-03-07T19:11:16.271Z,20.60
2023-03-07T19:13:44.065Z,55.80
2023-03-07T19:16:20.818Z,39.93
2023-03-07T19:18:48.395Z,13.87
2023-03-07T19:21:20.590Z,10.00
2023-03-07T19:23:48.412Z,9.50
2023-03-07T19:26:18.485Z,11.40
2023-03-07T19:28:47.791Z,7.60
2023-03-07T19:31:29.794Z,7.90
2023-03-07T19:33:58.716Z,7.13
2023-03-07T19:36:28.496Z,6.93
2023-03-07T19:38:59.311Z,7.13
2023-03-07T19:41:28.807Z,6.93
2023-03-07T19:43:57.675Z,6.33
2023-03-07T19:46:25.341Z,10.57
2023-03-07T19:48:52.790Z,9.60
2023-03-07T19:51:25.624Z,29.47
2023-03-07T19:53:55.935Z,38.97
2023-03-07T19:56:29.869Z,7.37
2023-03-07T19:58:59.067Z,14.70
2023-03-07T20:01:28.288Z,8.77
2023-03-07T20:03:57.153Z,8.83
2023-03-07T20:06:30.212Z,11.93
2023-03-07T20:08:58.985Z,7.67
2023-03-07T20:11:29.671Z,6.63
2023-03-07T20:13:58.686Z,6.43
2023-03-07T20:16:29.651Z,6.07
2023-03-07T20:18:59.566Z,8.07
2023-03-07T20:21:28.722Z,6.50
2023-03-07T20:23:59.796Z,5.73
2023-03-07T20:26:33.130Z,6.20
2023-03-07T20:29:01.685Z,6.13
2023-03-07T20:31:29.632Z,5.70
2023-03-07T20:33:59.373Z,6.73
2023-03-07T20:36:35.018Z,6.57
2023-03-07T20:39:05.655Z,6.50
2023-03-07T20:41:33.612Z,6.77
2023-03-07T20:44:04.095Z,9.37
2023-03-07T20:46:32.587Z,6.50
2023-03-07T20:49:01.952Z,8.37
2023-03-07T20:51:35.043Z,7.10
2023-03-07T20:54:05.359Z,7.50
2023-03-07T20:56:34.125Z,6.07
2023-03-07T20:59:02.041Z,34.93
2023-03-07T21:01:31.902Z,40.50
2023-03-07T21:04:08.621Z,10.50
2023-03-07T21:06:37.542Z,40.57
2023-03-07T21:09:08.292Z,40.50
2023-03-07T21:11:37.550Z,9.87
2023-03-07T21:14:05.011Z,11.13
2023-03-07T21:16:32.664Z,9.50
2023-03-07T21:19:02.230Z,14.50
2023-03-07T21:21:31.423Z,10.33
2023-03-07T21:23:59.008Z,9.80
2023-03-07T21:26:31.626Z,21.60
2023-03-07T21:28:59.496Z,7.37
2023-03-07T21:31:29.478Z,13.77
2023-03-07T21:33:59.347Z,13.13
2023-03-07T21:36:28.128Z,7.97
2023-03-07T21:38:56.179Z,8.10
2023-03-07T21:41:25.372Z,90.90
2023-03-07T21:43:57.304Z,74.33
2023-03-07T21:46:25.789Z,67.53
2023-03-07T21:48:53.359Z,32.43
2023-03-07T21:51:21.201Z,18.23
2023-03-07T21:53:48.620Z,7.93
2023-03-07T21:56:17.473Z,51.93
2023-03-07T21:58:48.678Z,38.40
2023-03-07T22:01:22.190Z,12.23
2023-03-07T22:03:55.684Z,13.23
2023-03-07T22:06:25.469Z,10.67
2023-03-07T22:08:53.226Z,14.57
2023-03-07T22:11:20.832Z,14.53
2023-03-07T22:13:48.263Z,11.43
2023-03-07T22:16:20.848Z,10.40
2023-03-07T22:18:57.494Z,6.43
2023-03-07T22:21:26.842Z,6.77
2023-03-07T22:24:01.334Z,8.37
2023-03-07T22:26:33.091Z,7.07
2023-03-07T22:29:00.906Z,8.40
2023-03-07T22:31:28.298Z,6.73
2023-03-07T22:33:55.959Z,6.97
2023-03-07T22:36:23.295Z,7.00
2023-03-07T22:38:55.394Z,7.33
2023-03-07T22:41:23.978Z,7.57
2023-03-07T22:43:52.690Z,6.90
2023-03-07T22:46:20.337Z,7.10
2023-03-07T22:48:47.583Z,7.07
2023-03-07T22:51:18.360Z,7.30
2023-03-07T22:53:46.126Z,7.83
2023-03-07T22:56:27.405Z,6.83
2023-03-07T22:58:55.125Z,7.10
2023-03-07T23:01:25.446Z,7.10
2023-03-07T23:03:54.344Z,6.50
2023-03-07T23:06:22.997Z,6.53
2023-03-07T23:08:54.261Z,7.20
2023-03-07T23:11:23.941Z,7.03
2023-03-07T23:13:51.701Z,7.30
2023-03-07T23:16:22.366Z,7.03
2023-03-07T23:18:51.102Z,7.00
2023-03-07T23:21:21.384Z,7.50
2023-03-07T23:23:49.119Z,7.50
2023-03-07T23:26:22.668Z,6.70
2023-03-07T23:28:50.784Z,6.83
2023-03-07T23:31:21.887Z,6.53
2023-03-07T23:33:49.851Z,6.37
2023-03-07T23:36:17.928Z,6.83
2023-03-07T23:38:46.564Z,7.70
2023-03-07T23:41:14.999Z,7.37
2023-03-07T23:43:42.370Z,7.40
2023-03-07T23:46:09.685Z,6.63
2023-03-07T23:48:37.173Z,7.93
2023-03-07T23:51:04.645Z,7.90
2023-03-07T23:53:31.921Z,7.50
2023-03-07T23:55:59.259Z,6.77
2023-03-07T23:58:26.618Z,6.67
